sensor_id;sensor_type;location;lat;lon;timestamp;P1;durP1;ratioP1;P2;durP2;ratioP2
79468;SDS011;68936;52.526;13.326;2023-05-25T00:01:29;9.98;;;3.42;;
79468;SDS011;68936;52.526;13.326;2023-05-25T00:03:58;7.57;;;3.45;;
79468;SDS011;68936;52.526;13.326;2023-05-25T00:06:26;9.23;;;3.78;;
79468;SDS011;68936;52.526;13.326;2023-05-25T00:08:54;7.75;;;3.67;;
79468;SDS011;68936;52.526;13.326;2023-05-25T00:11:21;8.23;;;3.60;;
79468;SDS011;68936;52.526;13.326;2023-05-25T00:13:47;7.97;;;3.42;;
79468;SDS011;68936;52.526;13.326;2023-05-25T00:16:13;7.65;;;3.58;;
79468;SDS011;68936;52.526;13.326;2023-05-25T00:18:40;8.55;;;3.35;;
79468;SDS011;68936;52.526;13.326;2023-05-25T00:21:09;7.80;;;3.92;;
79468;SDS011;68936;52.526;13.326;2023-05-25T00:23:35;6.30;;;3.03;;
79468;SDS011;68936;52.526;13.326;2023-05-25T00:26:02;7.95;;;3.63;;
79468;SDS011;68936;52.526;13.326;2023-05-25T00:28:28;7.85;;;4.00;;
79468;SDS011;68936;52.526;13.326;2023-05-25T00:30:56;7.60;;;4.18;;
79468;SDS011;68936;52.526;13.326;2023-05-25T00:33:22;7.72;;;3.83;;
79468;SDS011;68936;52.526;13.326;2023-05-25T00:35:48;8.50;;;3.67;;
79468;SDS011;68936;52.526;13.326;2023-05-25T00:38:18;8.63;;;4.75;;
79468;SDS011;68936;52.526;13.326;2023-05-25T00:40:46;8.85;;;3.80;;
79468;SDS011;68936;52.526;13.326;2023-05-25T00:43:12;6.53;;;3.47;;
79468;SDS011;68936;52.526;13.326;2023-05-25T00:45:38;5.82;;;3.15;;
79468;SDS011;68936;52.526;13.326;2023-05-25T00:48:04;7.97;;;3.78;;
79468;SDS011;68936;52.526;13.326;2023-05-25T00:53:02;6.55;;;3.33;;
79468;SDS011;68936;52.526;13.326;2023-05-25T00:55:29;5.80;;;3.40;;
79468;SDS011;68936;52.526;13.326;2023-05-25T00:57:58;9.90;;;3.80;;
79468;SDS011;68936;52.526;13.326;2023-05-25T01:00:25;9.00;;;3.58;;
79468;SDS011;68936;52.526;13.326;2023-05-25T01:02:54;7.82;;;3.40;;
79468;SDS011;68936;52.526;13.326;2023-05-25T01:05:22;6.70;;;3.47;;
79468;SDS011;68936;52.526;13.326;2023-05-25T01:07:53;6.72;;;3.20;;
79468;SDS011;68936;52.526;13.326;2023-05-25T01:10:19;5.70;;;3.20;;
79468;SDS011;68936;52.526;13.326;2023-05-25T01:12:52;5.22;;;3.00;;
79468;SDS011;68936;52.526;13.326;2023-05-25T01:15:20;8.48;;;3.95;;
79468;SDS011;68936;52.526;13.326;2023-05-25T01:17:47;7.20;;;3.10;;
79468;SDS011;68936;52.526;13.326;2023-05-25T01:20:17;6.20;;;3.13;;
79468;SDS011;68936;52.526;13.326;2023-05-25T01:22:46;6.70;;;3.47;;
79468;SDS011;68936;52.526;13.326;2023-05-25T01:25:19;6.25;;;3.22;;
79468;SDS011;68936;52.526;13.326;2023-05-25T01:30:21;5.50;;;3.30;;
79468;SDS011;68936;52.526;13.326;2023-05-25T01:32:50;8.10;;;3.42;;
79468;SDS011;68936;52.526;13.326;2023-05-25T01:35:17;5.65;;;2.88;;
79468;SDS011;68936;52.526;13.326;2023-05-25T01:37:45;7.35;;;4.03;;
79468;SDS011;68936;52.526;13.326;2023-05-25T01:40:14;7.05;;;3.28;;
79468;SDS011;68936;52.526;13.326;2023-05-25T01:42:40;7.20;;;3.53;;
79468;SDS011;68936;52.526;13.326;2023-05-25T01:45:07;6.72;;;3.42;;
79468;SDS011;68936;52.526;13.326;2023-05-25T01:53:11;6.28;;;3.22;;
79468;SDS011;68936;52.526;13.326;2023-05-25T01:55:42;9.25;;;4.10;;
79468;SDS011;68936;52.526;13.326;2023-05-25T01:58:13;6.78;;;3.45;;
79468;SDS011;68936;52.526;13.326;2023-05-25T02:00:42;5.97;;;3.17;;
79468;SDS011;68936;52.526;13.326;2023-05-25T02:03:09;7.32;;;3.30;;
79468;SDS011;68936;52.526;13.326;2023-05-25T02:05:38;5.53;;;3.25;;
79468;SDS011;68936;52.526;13.326;2023-05-25T02:08:06;8.07;;;3.92;;
79468;SDS011;68936;52.526;13.326;2023-05-25T02:10:32;7.93;;;3.22;;
79468;SDS011;68936;52.526;13.326;2023-05-25T02:12:58;5.20;;;2.95;;
79468;SDS011;68936;52.526;13.326;2023-05-25T02:15:30;5.72;;;3.17;;
79468;SDS011;68936;52.526;13.326;2023-05-25T02:17:56;4.95;;;3.05;;
79468;SDS011;68936;52.526;13.326;2023-05-25T02:20:23;5.18;;;3.28;;
79468;SDS011;68936;52.526;13.326;2023-05-25T02:22:52;6.30;;;3.20;;
79468;SDS011;68936;52.526;13.326;2023-05-25T02:25:20;5.53;;;3.30;;
79468;SDS011;68936;52.526;13.326;2023-05-25T02:27:46;5.22;;;3.22;;
79468;SDS011;68936;52.526;13.326;2023-05-25T02:30:15;5.53;;;3.42;;
79468;SDS011;68936;52.526;13.326;2023-05-25T02:32:41;6.28;;;3.10;;
79468;SDS011;68936;52.526;13.326;2023-05-25T02:35:07;6.13;;;2.97;;
79468;SDS011;68936;52.526;13.326;2023-05-25T02:37:33;4.97;;;3.45;;
79468;SDS011;68936;52.526;13.326;2023-05-25T02:40:00;5.45;;;3.20;;
79468;SDS011;68936;52.526;13.326;2023-05-25T02:42:28;3.78;;;2.88;;
79468;SDS011;68936;52.526;13.326;2023-05-25T02:44:54;7.00;;;3.10;;
79468;SDS011;68936;52.526;13.326;2023-05-25T02:47:20;5.72;;;3.00;;
79468;SDS011;68936;52.526;13.326;2023-05-25T02:49:46;5.38;;;3.42;;
79468;SDS011;68936;52.526;13.326;2023-05-25T02:52:12;5.63;;;3.22;;
79468;SDS011;68936;52.526;13.326;2023-05-25T02:54:41;4.82;;;3.10;;
79468;SDS011;68936;52.526;13.326;2023-05-25T02:57:07;5.43;;;3.15;;
79468;SDS011;68936;52.526;13.326;2023-05-25T02:59:34;6.32;;;3.00;;
79468;SDS011;68936;52.526;13.326;2023-05-25T03:02:00;5.00;;;2.75;;
79468;SDS011;68936;52.526;13.326;2023-05-25T03:04:26;6.05;;;3.00;;
79468;SDS011;68936;52.526;13.326;2023-05-25T03:06:52;5.32;;;3.22;;
79468;SDS011;68936;52.526;13.326;2023-05-25T03:09:20;6.25;;;3.00;;
79468;SDS011;68936;52.526;13.326;2023-05-25T03:11:46;4.65;;;3.05;;
79468;SDS011;68936;52.526;13.326;2023-05-25T03:14:13;6.28;;;3.10;;
79468;SDS011;68936;52.526;13.326;2023-05-25T03:16:41;4.95;;;2.85;;
79468;SDS011;68936;52.526;13.326;2023-05-25T03:19:07;5.13;;;2.90;;
79468;SDS011;68936;52.526;13.326;2023-05-25T03:21:36;5.38;;;3.20;;
79468;SDS011;68936;52.526;13.326;2023-05-25T03:24:02;4.75;;;2.78;;
79468;SDS011;68936;52.526;13.326;2023-05-25T03:26:28;6.05;;;2.90;;
79468;SDS011;68936;52.526;13.326;2023-05-25T03:28:56;4.85;;;2.88;;
79468;SDS011;68936;52.526;13.326;2023-05-25T03:31:22;5.03;;;3.00;;
79468;SDS011;68936;52.526;13.326;2023-05-25T03:33:50;4.80;;;2.88;;
79468;SDS011;68936;52.526;13.326;2023-05-25T03:36:16;4.53;;;2.55;;
79468;SDS011;68936;52.526;13.326;2023-05-25T03:38:42;6.30;;;3.20;;
79468;SDS011;68936;52.526;13.326;2023-05-25T03:41:09;4.43;;;2.70;;
79468;SDS011;68936;52.526;13.326;2023-05-25T03:43:35;5.80;;;3.05;;
79468;SDS011;68936;52.526;13.326;2023-05-25T03:46:01;4.70;;;2.97;;
79468;SDS011;68936;52.526;13.326;2023-05-25T03:48:27;5.32;;;2.90;;
79468;SDS011;68936;52.526;13.326;2023-05-25T03:50:53;6.05;;;2.92;;
79468;SDS011;68936;52.526;13.326;2023-05-25T03:53:19;5.05;;;3.50;;
79468;SDS011;68936;52.526;13.326;2023-05-25T03:55:47;5.75;;;3.13;;
79468;SDS011;68936;52.526;13.326;2023-05-25T03:58:15;4.55;;;2.90;;
79468;SDS011;68936;52.526;13.326;2023-05-25T04:00:42;4.47;;;3.03;;
79468;SDS011;68936;52.526;13.326;2023-05-25T04:03:08;5.85;;;3.05;;
79468;SDS011;68936;52.526;13.326;2023-05-25T04:05:34;4.88;;;3.13;;
79468;SDS011;68936;52.526;13.326;2023-05-25T04:08:01;4.80;;;2.60;;
79468;SDS011;68936;52.526;13.326;2023-05-25T04:10:27;5.68;;;2.72;;
79468;SDS011;68936;52.526;13.326;2023-05-25T04:12:53;4.65;;;2.80;;
79468;SDS011;68936;52.526;13.326;2023-05-25T04:15:23;6.93;;;2.97;;
79468;SDS011;68936;52.526;13.326;2023-05-25T04:17:49;5.30;;;2.83;;
79468;SDS011;68936;52.526;13.326;2023-05-25T04:20:15;4.85;;;2.80;;
79468;SDS011;68936;52.526;13.326;2023-05-25T04:22:41;6.30;;;3.53;;
79468;SDS011;68936;52.526;13.326;2023-05-25T04:25:09;5.28;;;3.17;;
79468;SDS011;68936;52.526;13.326;2023-05-25T04:27:35;6.18;;;3.10;;
79468;SDS011;68936;52.526;13.326;2023-05-25T04:30:01;5.07;;;2.75;;
79468;SDS011;68936;52.526;13.326;2023-05-25T04:32:27;5.05;;;2.88;;
79468;SDS011;68936;52.526;13.326;2023-05-25T04:34:56;4.93;;;3.15;;
79468;SDS011;68936;52.526;13.326;2023-05-25T04:37:23;3.45;;;2.60;;
79468;SDS011;68936;52.526;13.326;2023-05-25T04:39:54;5.50;;;2.90;;
79468;SDS011;68936;52.526;13.326;2023-05-25T04:42:21;6.63;;;2.88;;
79468;SDS011;68936;52.526;13.326;2023-05-25T04:44:48;4.95;;;2.80;;
79468;SDS011;68936;52.526;13.326;2023-05-25T04:47:15;4.60;;;2.85;;
79468;SDS011;68936;52.526;13.326;2023-05-25T04:49:41;6.18;;;2.90;;
79468;SDS011;68936;52.526;13.326;2023-05-25T04:52:07;6.38;;;3.10;;
79468;SDS011;68936;52.526;13.326;2023-05-25T04:54:33;3.92;;;2.83;;
79468;SDS011;68936;52.526;13.326;2023-05-25T04:57:00;5.25;;;2.92;;
79468;SDS011;68936;52.526;13.326;2023-05-25T04:59:26;5.30;;;2.70;;
79468;SDS011;68936;52.526;13.326;2023-05-25T05:01:52;3.47;;;2.40;;
79468;SDS011;68936;52.526;13.326;2023-05-25T05:04:18;4.78;;;3.05;;
79468;SDS011;68936;52.526;13.326;2023-05-25T05:06:46;4.50;;;2.65;;
79468;SDS011;68936;52.526;13.326;2023-05-25T05:09:12;3.88;;;2.50;;
79468;SDS011;68936;52.526;13.326;2023-05-25T05:11:38;4.13;;;2.92;;
79468;SDS011;68936;52.526;13.326;2023-05-25T05:14:07;4.97;;;2.95;;
79468;SDS011;68936;52.526;13.326;2023-05-25T05:16:33;5.13;;;2.88;;
79468;SDS011;68936;52.526;13.326;2023-05-25T05:19:02;3.95;;;2.50;;
79468;SDS011;68936;52.526;13.326;2023-05-25T05:21:28;4.22;;;2.88;;
79468;SDS011;68936;52.526;13.326;2023-05-25T05:23:57;4.10;;;2.83;;
79468;SDS011;68936;52.526;13.326;2023-05-25T05:26:25;5.30;;;3.22;;
79468;SDS011;68936;52.526;13.326;2023-05-25T05:28:51;4.53;;;3.03;;
79468;SDS011;68936;52.526;13.326;2023-05-25T05:31:17;5.38;;;3.08;;
79468;SDS011;68936;52.526;13.326;2023-05-25T05:33:43;5.40;;;3.17;;
79468;SDS011;68936;52.526;13.326;2023-05-25T05:36:09;4.72;;;2.80;;
79468;SDS011;68936;52.526;13.326;2023-05-25T05:38:35;3.85;;;2.65;;
79468;SDS011;68936;52.526;13.326;2023-05-25T05:41:04;6.03;;;2.65;;
79468;SDS011;68936;52.526;13.326;2023-05-25T05:43:37;3.63;;;2.63;;
79468;SDS011;68936;52.526;13.326;2023-05-25T05:46:03;5.97;;;3.58;;
79468;SDS011;68936;52.526;13.326;2023-05-25T05:48:30;4.32;;;3.03;;
79468;SDS011;68936;52.526;13.326;2023-05-25T05:50:58;5.10;;;2.90;;
79468;SDS011;68936;52.526;13.326;2023-05-25T05:53:25;5.43;;;3.08;;
79468;SDS011;68936;52.526;13.326;2023-05-25T05:55:51;7.57;;;3.13;;
79468;SDS011;68936;52.526;13.326;2023-05-25T05:58:23;4.38;;;3.03;;
79468;SDS011;68936;52.526;13.326;2023-05-25T06:00:51;4.82;;;2.88;;
79468;SDS011;68936;52.526;13.326;2023-05-25T06:03:17;6.38;;;3.22;;
79468;SDS011;68936;52.526;13.326;2023-05-25T06:05:48;6.88;;;3.25;;
79468;SDS011;68936;52.526;13.326;2023-05-25T06:08:14;5.05;;;2.97;;
79468;SDS011;68936;52.526;13.326;2023-05-25T06:10:42;5.63;;;3.47;;
79468;SDS011;68936;52.526;13.326;2023-05-25T06:13:08;5.35;;;3.17;;
79468;SDS011;68936;52.526;13.326;2023-05-25T06:15:34;4.65;;;2.65;;
79468;SDS011;68936;52.526;13.326;2023-05-25T06:18:00;5.40;;;3.35;;
79468;SDS011;68936;52.526;13.326;2023-05-25T06:20:27;3.95;;;2.83;;
79468;SDS011;68936;52.526;13.326;2023-05-25T06:22:53;4.80;;;2.95;;
79468;SDS011;68936;52.526;13.326;2023-05-25T06:25:19;5.32;;;3.15;;
79468;SDS011;68936;52.526;13.326;2023-05-25T06:27:45;6.32;;;3.13;;
79468;SDS011;68936;52.526;13.326;2023-05-25T06:30:11;3.30;;;2.85;;
79468;SDS011;68936;52.526;13.326;2023-05-25T06:32:40;4.85;;;3.00;;
79468;SDS011;68936;52.526;13.326;2023-05-25T06:35:07;5.95;;;3.08;;
79468;SDS011;68936;52.526;13.326;2023-05-25T06:37:43;5.75;;;3.20;;
79468;SDS011;68936;52.526;13.326;2023-05-25T06:40:09;5.50;;;3.28;;
79468;SDS011;68936;52.526;13.326;2023-05-25T06:42:35;5.63;;;3.70;;
79468;SDS011;68936;52.526;13.326;2023-05-25T06:45:04;4.95;;;3.28;;
79468;SDS011;68936;52.526;13.326;2023-05-25T06:47:30;5.68;;;3.28;;
79468;SDS011;68936;52.526;13.326;2023-05-25T06:49:56;6.18;;;3.40;;
79468;SDS011;68936;52.526;13.326;2023-05-25T06:52:22;5.32;;;4.07;;
79468;SDS011;68936;52.526;13.326;2023-05-25T06:54:49;5.65;;;3.42;;
79468;SDS011;68936;52.526;13.326;2023-05-25T06:57:17;8.27;;;3.65;;
79468;SDS011;68936;52.526;13.326;2023-05-25T06:59:43;6.57;;;4.20;;
79468;SDS011;68936;52.526;13.326;2023-05-25T07:02:09;8.77;;;4.70;;
79468;SDS011;68936;52.526;13.326;2023-05-25T07:04:35;4.30;;;2.95;;
79468;SDS011;68936;52.526;13.326;2023-05-25T07:07:01;4.30;;;2.92;;
79468;SDS011;68936;52.526;13.326;2023-05-25T07:09:30;4.43;;;3.25;;
79468;SDS011;68936;52.526;13.326;2023-05-25T07:11:56;7.75;;;4.07;;
79468;SDS011;68936;52.526;13.326;2023-05-25T07:14:22;6.65;;;3.50;;
79468;SDS011;68936;52.526;13.326;2023-05-25T07:16:48;4.90;;;3.00;;
79468;SDS011;68936;52.526;13.326;2023-05-25T07:19:16;5.53;;;3.10;;
79468;SDS011;68936;52.526;13.326;2023-05-25T07:21:44;6.60;;;3.50;;
79468;SDS011;68936;52.526;13.326;2023-05-25T07:24:13;8.18;;;3.00;;
79468;SDS011;68936;52.526;13.326;2023-05-25T07:26:39;4.20;;;2.83;;
79468;SDS011;68936;52.526;13.326;2023-05-25T07:29:05;5.20;;;2.80;;
79468;SDS011;68936;52.526;13.326;2023-05-25T07:31:33;5.15;;;3.40;;
79468;SDS011;68936;52.526;13.326;2023-05-25T07:34:00;4.88;;;3.15;;
79468;SDS011;68936;52.526;13.326;2023-05-25T07:36:26;4.45;;;3.08;;
79468;SDS011;68936;52.526;13.326;2023-05-25T07:38:52;6.20;;;3.00;;
79468;SDS011;68936;52.526;13.326;2023-05-25T07:41:18;4.40;;;2.88;;
79468;SDS011;68936;52.526;13.326;2023-05-25T07:43:44;5.13;;;3.45;;
79468;SDS011;68936;52.526;13.326;2023-05-25T07:46:10;5.07;;;3.22;;
79468;SDS011;68936;52.526;13.326;2023-05-25T07:48:36;4.03;;;2.85;;
79468;SDS011;68936;52.526;13.326;2023-05-25T07:51:05;4.95;;;2.92;;
79468;SDS011;68936;52.526;13.326;2023-05-25T07:53:33;4.88;;;3.03;;
79468;SDS011;68936;52.526;13.326;2023-05-25T07:56:00;6.03;;;3.00;;
79468;SDS011;68936;52.526;13.326;2023-05-25T07:58:26;6.10;;;2.88;;
79468;SDS011;68936;52.526;13.326;2023-05-25T08:00:52;5.75;;;2.75;;
79468;SDS011;68936;52.526;13.326;2023-05-25T08:03:18;3.60;;;2.67;;
79468;SDS011;68936;52.526;13.326;2023-05-25T08:05:48;4.55;;;2.85;;
79468;SDS011;68936;52.526;13.326;2023-05-25T08:08:14;4.38;;;2.97;;
79468;SDS011;68936;52.526;13.326;2023-05-25T08:10:41;5.43;;;2.90;;
79468;SDS011;68936;52.526;13.326;2023-05-25T08:13:06;6.20;;;2.83;;
79468;SDS011;68936;52.526;13.326;2023-05-25T08:15:35;5.40;;;2.67;;
79468;SDS011;68936;52.526;13.326;2023-05-25T08:18:01;5.72;;;3.03;;
79468;SDS011;68936;52.526;13.326;2023-05-25T08:20:28;4.25;;;2.67;;
79468;SDS011;68936;52.526;13.326;2023-05-25T08:22:54;4.03;;;2.75;;
79468;SDS011;68936;52.526;13.326;2023-05-25T08:25:20;5.35;;;3.53;;
79468;SDS011;68936;52.526;13.326;2023-05-25T08:27:46;4.63;;;3.05;;
79468;SDS011;68936;52.526;13.326;2023-05-25T08:30:15;4.05;;;2.75;;
79468;SDS011;68936;52.526;13.326;2023-05-25T08:32:40;5.45;;;2.70;;
79468;SDS011;68936;52.526;13.326;2023-05-25T08:35:07;4.72;;;3.13;;
79468;SDS011;68936;52.526;13.326;2023-05-25T08:37:33;4.65;;;2.75;;
79468;SDS011;68936;52.526;13.326;2023-05-25T08:39:59;6.22;;;2.85;;
79468;SDS011;68936;52.526;13.326;2023-05-25T08:42:30;4.35;;;2.78;;
79468;SDS011;68936;52.526;13.326;2023-05-25T08:44:58;5.03;;;2.60;;
79468;SDS011;68936;52.526;13.326;2023-05-25T08:47:26;3.85;;;2.80;;
79468;SDS011;68936;52.526;13.326;2023-05-25T08:49:55;5.75;;;2.92;;
79468;SDS011;68936;52.526;13.326;2023-05-25T08:52:21;6.15;;;3.10;;
79468;SDS011;68936;52.526;13.326;2023-05-25T08:54:51;5.18;;;3.10;;
79468;SDS011;68936;52.526;13.326;2023-05-25T08:57:28;8.63;;;2.55;;
79468;SDS011;68936;52.526;13.326;2023-05-25T09:00:03;5.10;;;3.10;;
79468;SDS011;68936;52.526;13.326;2023-05-25T09:05:00;7.13;;;2.97;;
79468;SDS011;68936;52.526;13.326;2023-05-25T09:07:29;4.43;;;3.10;;
79468;SDS011;68936;52.526;13.326;2023-05-25T09:09:57;4.90;;;2.95;;
79468;SDS011;68936;52.526;13.326;2023-05-25T09:12:25;4.32;;;2.60;;
79468;SDS011;68936;52.526;13.326;2023-05-25T09:14:52;4.90;;;2.92;;
79468;SDS011;68936;52.526;13.326;2023-05-25T09:17:18;5.05;;;2.85;;
79468;SDS011;68936;52.526;13.326;2023-05-25T09:19:46;4.25;;;2.60;;
79468;SDS011;68936;52.526;13.326;2023-05-25T09:22:15;6.93;;;3.15;;
79468;SDS011;68936;52.526;13.326;2023-05-25T09:24:41;3.70;;;2.53;;
79468;SDS011;68936;52.526;13.326;2023-05-25T09:27:12;5.85;;;3.03;;
79468;SDS011;68936;52.526;13.326;2023-05-25T09:29:41;4.40;;;2.60;;
79468;SDS011;68936;52.526;13.326;2023-05-25T09:32:07;4.35;;;2.60;;
79468;SDS011;68936;52.526;13.326;2023-05-25T09:34:33;3.92;;;2.70;;
79468;SDS011;68936;52.526;13.326;2023-05-25T09:37:00;4.15;;;2.58;;
79468;SDS011;68936;52.526;13.326;2023-05-25T09:39:28;4.05;;;2.60;;
79468;SDS011;68936;52.526;13.326;2023-05-25T09:41:55;4.47;;;2.80;;
79468;SDS011;68936;52.526;13.326;2023-05-25T09:44:21;4.80;;;2.60;;
79468;SDS011;68936;52.526;13.326;2023-05-25T09:46:47;4.07;;;2.25;;
79468;SDS011;68936;52.526;13.326;2023-05-25T09:49:13;3.88;;;2.85;;
79468;SDS011;68936;52.526;13.326;2023-05-25T09:51:40;5.45;;;2.97;;
79468;SDS011;68936;52.526;13.326;2023-05-25T09:54:09;3.78;;;2.67;;
79468;SDS011;68936;52.526;13.326;2023-05-25T09:56:35;4.38;;;2.65;;
79468;SDS011;68936;52.526;13.326;2023-05-25T09:59:01;4.18;;;2.60;;
79468;SDS011;68936;52.526;13.326;2023-05-25T10:01:31;5.60;;;3.10;;
79468;SDS011;68936;52.526;13.326;2023-05-25T10:03:57;4.70;;;2.70;;
79468;SDS011;68936;52.526;13.326;2023-05-25T10:06:26;4.07;;;2.63;;
79468;SDS011;68936;52.526;13.326;2023-05-25T10:08:55;5.80;;;2.63;;
79468;SDS011;68936;52.526;13.326;2023-05-25T10:11:24;5.70;;;2.75;;
79468;SDS011;68936;52.526;13.326;2023-05-25T10:13:54;5.70;;;3.05;;
79468;SDS011;68936;52.526;13.326;2023-05-25T10:16:26;8.05;;;2.67;;
79468;SDS011;68936;52.526;13.326;2023-05-25T10:18:54;5.28;;;3.03;;
79468;SDS011;68936;52.526;13.326;2023-05-25T10:21:23;7.50;;;2.78;;
79468;SDS011;68936;52.526;13.326;2023-05-25T10:23:51;4.90;;;2.97;;
79468;SDS011;68936;52.526;13.326;2023-05-25T10:26:19;6.80;;;2.90;;
79468;SDS011;68936;52.526;13.326;2023-05-25T10:28:49;4.72;;;2.70;;
79468;SDS011;68936;52.526;13.326;2023-05-25T10:31:16;5.03;;;2.70;;
79468;SDS011;68936;52.526;13.326;2023-05-25T10:33:43;11.27;;;3.00;;
79468;SDS011;68936;52.526;13.326;2023-05-25T10:36:09;5.25;;;2.42;;
79468;SDS011;68936;52.526;13.326;2023-05-25T10:38:43;3.88;;;2.65;;
79468;SDS011;68936;52.526;13.326;2023-05-25T10:41:11;4.63;;;3.03;;
79468;SDS011;68936;52.526;13.326;2023-05-25T10:43:39;4.53;;;2.67;;
79468;SDS011;68936;52.526;13.326;2023-05-25T10:46:06;7.13;;;2.92;;
79468;SDS011;68936;52.526;13.326;2023-05-25T10:48:38;5.47;;;2.70;;
79468;SDS011;68936;52.526;13.326;2023-05-25T10:51:05;6.15;;;2.90;;
79468;SDS011;68936;52.526;13.326;2023-05-25T10:53:31;5.68;;;2.88;;
79468;SDS011;68936;52.526;13.326;2023-05-25T10:56:05;3.85;;;2.42;;
79468;SDS011;68936;52.526;13.326;2023-05-25T10:58:34;5.65;;;2.63;;
79468;SDS011;68936;52.526;13.326;2023-05-25T11:01:05;5.50;;;2.92;;
79468;SDS011;68936;52.526;13.326;2023-05-25T11:08:59;4.97;;;2.80;;
79468;SDS011;68936;52.526;13.326;2023-05-25T11:14:21;4.00;;;2.33;;
79468;SDS011;68936;52.526;13.326;2023-05-25T11:17:30;5.55;;;2.42;;
79468;SDS011;68936;52.526;13.326;2023-05-25T11:22:15;3.80;;;2.60;;
79468;SDS011;68936;52.526;13.326;2023-05-25T11:24:43;5.47;;;2.97;;
79468;SDS011;68936;52.526;13.326;2023-05-25T11:27:09;3.25;;;2.33;;
79468;SDS011;68936;52.526;13.326;2023-05-25T11:29:38;3.60;;;2.42;;
79468;SDS011;68936;52.526;13.326;2023-05-25T11:32:10;4.90;;;2.28;;
79468;SDS011;68936;52.526;13.326;2023-05-25T11:34:39;4.70;;;2.70;;
79468;SDS011;68936;52.526;13.326;2023-05-25T11:37:11;3.83;;;2.53;;
79468;SDS011;68936;52.526;13.326;2023-05-25T11:39:40;3.72;;;2.25;;
79468;SDS011;68936;52.526;13.326;2023-05-25T11:42:10;4.05;;;2.42;;
79468;SDS011;68936;52.526;13.326;2023-05-25T11:44:37;5.93;;;2.80;;
79468;SDS011;68936;52.526;13.326;2023-05-25T11:47:07;6.57;;;2.63;;
79468;SDS011;68936;52.526;13.326;2023-05-25T11:49:34;3.67;;;2.38;;
79468;SDS011;68936;52.526;13.326;2023-05-25T11:52:03;6.43;;;2.90;;
79468;SDS011;68936;52.526;13.326;2023-05-25T11:54:30;13.85;;;2.80;;
79468;SDS011;68936;52.526;13.326;2023-05-25T11:56:56;7.45;;;2.80;;
79468;SDS011;68936;52.526;13.326;2023-05-25T11:59:26;5.32;;;2.47;;
79468;SDS011;68936;52.526;13.326;2023-05-25T12:01:59;4.43;;;2.65;;
79468;SDS011;68936;52.526;13.326;2023-05-25T12:04:28;7.00;;;2.80;;
79468;SDS011;68936;52.526;13.326;2023-05-25T12:07:02;4.57;;;2.65;;
79468;SDS011;68936;52.526;13.326;2023-05-25T12:11:55;5.32;;;2.78;;
79468;SDS011;68936;52.526;13.326;2023-05-25T12:14:21;5.60;;;2.53;;
79468;SDS011;68936;52.526;13.326;2023-05-25T12:16:50;5.82;;;2.97;;
79468;SDS011;68936;52.526;13.326;2023-05-25T12:19:16;5.72;;;2.08;;
79468;SDS011;68936;52.526;13.326;2023-05-25T12:21:42;5.38;;;3.15;;
79468;SDS011;68936;52.526;13.326;2023-05-25T12:24:11;6.80;;;2.83;;
79468;SDS011;68936;52.526;13.326;2023-05-25T12:26:50;7.95;;;3.53;;
79468;SDS011;68936;52.526;13.326;2023-05-25T12:29:21;10.50;;;4.30;;
79468;SDS011;68936;52.526;13.326;2023-05-25T12:31:47;9.05;;;4.35;;
79468;SDS011;68936;52.526;13.326;2023-05-25T12:34:14;17.25;;;4.75;;
79468;SDS011;68936;52.526;13.326;2023-05-25T12:39:07;10.85;;;5.20;;
79468;SDS011;68936;52.526;13.326;2023-05-25T12:44:21;14.57;;;5.13;;
79468;SDS011;68936;52.526;13.326;2023-05-25T12:46:48;9.63;;;5.00;;
79468;SDS011;68936;52.526;13.326;2023-05-25T12:49:30;9.05;;;4.32;;
79468;SDS011;68936;52.526;13.326;2023-05-25T12:51:56;11.88;;;4.57;;
79468;SDS011;68936;52.526;13.326;2023-05-25T12:54:33;13.75;;;5.03;;
79468;SDS011;68936;52.526;13.326;2023-05-25T12:56:59;19.42;;;4.90;;
79468;SDS011;68936;52.526;13.326;2023-05-25T12:59:29;13.27;;;4.72;;
79468;SDS011;68936;52.526;13.326;2023-05-25T13:01:56;10.98;;;5.07;;
79468;SDS011;68936;52.526;13.326;2023-05-25T13:04:24;9.20;;;4.80;;
79468;SDS011;68936;52.526;13.326;2023-05-25T13:06:51;8.73;;;4.22;;
79468;SDS011;68936;52.526;13.326;2023-05-25T13:09:18;9.90;;;4.60;;
79468;SDS011;68936;52.526;13.326;2023-05-25T13:11:46;8.02;;;4.47;;
79468;SDS011;68936;52.526;13.326;2023-05-25T13:14:17;8.70;;;4.50;;
79468;SDS011;68936;52.526;13.326;2023-05-25T13:16:43;10.55;;;4.28;;
79468;SDS011;68936;52.526;13.326;2023-05-25T13:19:10;7.75;;;4.10;;
79468;SDS011;68936;52.526;13.326;2023-05-25T13:21:36;9.27;;;4.15;;
79468;SDS011;68936;52.526;13.326;2023-05-25T13:24:02;9.73;;;4.70;;
79468;SDS011;68936;52.526;13.326;2023-05-25T13:26:28;9.45;;;3.92;;
79468;SDS011;68936;52.526;13.326;2023-05-25T13:28:56;13.52;;;5.00;;
79468;SDS011;68936;52.526;13.326;2023-05-25T13:31:25;9.63;;;4.40;;
79468;SDS011;68936;52.526;13.326;2023-05-25T13:33:51;10.75;;;4.53;;
79468;SDS011;68936;52.526;13.326;2023-05-25T13:36:17;14.48;;;4.50;;
79468;SDS011;68936;52.526;13.326;2023-05-25T13:38:43;9.32;;;4.45;;
79468;SDS011;68936;52.526;13.326;2023-05-25T13:41:09;9.38;;;4.07;;
79468;SDS011;68936;52.526;13.326;2023-05-25T13:43:35;8.38;;;4.15;;
79468;SDS011;68936;52.526;13.326;2023-05-25T13:46:01;9.23;;;3.65;;
79468;SDS011;68936;52.526;13.326;2023-05-25T13:48:27;8.20;;;4.03;;
79468;SDS011;68936;52.526;13.326;2023-05-25T13:50:54;8.52;;;3.70;;
79468;SDS011;68936;52.526;13.326;2023-05-25T13:53:20;6.57;;;3.67;;
79468;SDS011;68936;52.526;13.326;2023-05-25T13:55:46;10.43;;;3.92;;
79468;SDS011;68936;52.526;13.326;2023-05-25T13:58:12;8.65;;;3.88;;
79468;SDS011;68936;52.526;13.326;2023-05-25T14:00:38;9.15;;;4.10;;
79468;SDS011;68936;52.526;13.326;2023-05-25T14:03:07;9.00;;;3.80;;
79468;SDS011;68936;52.526;13.326;2023-05-25T14:05:33;9.43;;;3.70;;
79468;SDS011;68936;52.526;13.326;2023-05-25T14:08:01;9.27;;;3.80;;
79468;SDS011;68936;52.526;13.326;2023-05-25T14:10:30;8.05;;;3.53;;
79468;SDS011;68936;52.526;13.326;2023-05-25T14:12:59;9.30;;;4.20;;
79468;SDS011;68936;52.526;13.326;2023-05-25T14:15:25;9.02;;;3.70;;
79468;SDS011;68936;52.526;13.326;2023-05-25T14:17:51;9.30;;;4.78;;
79468;SDS011;68936;52.526;13.326;2023-05-25T14:20:19;8.43;;;3.83;;
79468;SDS011;68936;52.526;13.326;2023-05-25T14:22:50;7.43;;;4.47;;
79468;SDS011;68936;52.526;13.326;2023-05-25T14:25:18;7.20;;;4.07;;
79468;SDS011;68936;52.526;13.326;2023-05-25T14:27:44;11.50;;;5.20;;
79468;SDS011;68936;52.526;13.326;2023-05-25T14:30:13;9.77;;;4.78;;
79468;SDS011;68936;52.526;13.326;2023-05-25T14:32:39;13.82;;;4.35;;
79468;SDS011;68936;52.526;13.326;2023-05-25T14:35:08;9.63;;;5.03;;
79468;SDS011;68936;52.526;13.326;2023-05-25T14:37:34;11.15;;;5.05;;
79468;SDS011;68936;52.526;13.326;2023-05-25T14:40:00;7.00;;;4.30;;
79468;SDS011;68936;52.526;13.326;2023-05-25T14:42:26;7.55;;;4.20;;
79468;SDS011;68936;52.526;13.326;2023-05-25T14:44:57;8.98;;;4.70;;
79468;SDS011;68936;52.526;13.326;2023-05-25T14:47:25;8.30;;;4.65;;
79468;SDS011;68936;52.526;13.326;2023-05-25T14:49:54;7.22;;;4.22;;
79468;SDS011;68936;52.526;13.326;2023-05-25T14:52:20;7.20;;;4.32;;
79468;SDS011;68936;52.526;13.326;2023-05-25T14:54:48;7.63;;;3.88;;
79468;SDS011;68936;52.526;13.326;2023-05-25T14:57:14;7.85;;;5.13;;
79468;SDS011;68936;52.526;13.326;2023-05-25T14:59:41;7.15;;;4.63;;
79468;SDS011;68936;52.526;13.326;2023-05-25T15:02:07;7.03;;;4.20;;
79468;SDS011;68936;52.526;13.326;2023-05-25T15:04:35;6.60;;;4.38;;
79468;SDS011;68936;52.526;13.326;2023-05-25T15:07:01;5.95;;;3.83;;